Time;durP1;ratioP1;P1;durP2;ratioP2;P2;SDS_P1;SDS_P2;PMS_P1;PMS_P2;Temp;Humidity;BMP_temperature;BMP_pressure;BME280_temperature;BME280_humidity;BME280_pressure;Samples;Min_cycle;Max_cycle;Signal;HPM_P1;HPM_P2
2023/10/07 00:00:59;;;;;;;22.57;11.53;;;10.00;46.90;;;;;;5001875;28;46439;-81
2023/10/07 00:03:25;;;;;;;17.60;10.77;;;9.90;48.20;;;;;;5000543;28;46876;-78
2023/10/07 00:06:00;;;;;;;18.43;11.23;;;9.90;48.30;;;;;;5001650;28;46467;-81
2023/10/07 00:08:27;;;;;;;21.53;12.13;;;9.80;48.40;;;;;;5000723;28;46509;-77
2023/10/07 00:10:58;;;;;;;20.10;11.57;;;9.80;48.70;;;;;;5001019;28;46379;-79
2023/10/07 00:13:26;;;;;;;16.30;10.43;;;9.70;49.00;;;;;;5002036;28;46753;-80
2023/10/07 00:15:53;;;;;;;18.13;11.50;;;9.70;49.40;;;;;;5000092;28;46871;-81
2023/10/07 00:18:19;;;;;;;26.37;11.77;;;9.60;49.70;;;;;;5002603;28;46517;-78
2023/10/07 00:20:50;;;;;;;23.60;11.60;;;9.60;49.90;;;;;;5001794;28;46502;-81
2023/10/07 00:23:20;;;;;;;16.87;11.50;;;9.50;50.00;;;;;;5002703;28;47553;-81
2023/10/07 00:25:49;;;;;;;17.63;10.33;;;9.50;50.30;;;;;;5000241;28;46538;-80
2023/10/07 00:28:25;;;;;;;20.00;12.03;;;9.50;50.50;;;;;;5001475;28;46651;-81
2023/10/07 00:30:55;;;;;;;18.67;10.80;;;9.40;50.40;;;;;;5003120;28;46962;-80
2023/10/07 00:33:22;;;;;;;20.57;11.77;;;9.30;50.50;;;;;;5002887;28;46815;-80
2023/10/07 00:35:53;;;;;;;21.87;12.33;;;9.30;50.60;;;;;;4996882;28;47251;-80
2023/10/07 00:38:22;;;;;;;22.80;12.33;;;9.20;50.60;;;;;;5000452;28;46409;-80
2023/10/07 00:40:53;;;;;;;29.20;11.63;;;9.20;50.80;;;;;;5000907;28;47495;-80
2023/10/07 00:43:26;;;;;;;29.70;12.60;;;9.20;50.90;;;;;;4998891;28;48212;-78
2023/10/07 00:46:06;;;;;;;19.53;12.60;;;9.10;51.30;;;;;;5000785;28;46643;-80
2023/10/07 00:48:44;;;;;;;19.23;12.37;;;9.30;52.00;;;;;;4998233;28;46746;-79
2023/10/07 00:51:11;;;;;;;24.57;13.50;;;9.10;51.80;;;;;;5001231;28;46524;-80
2023/10/07 00:53:45;;;;;;;22.37;11.90;;;9.10;51.80;;;;;;4999495;28;46977;-78
2023/10/07 00:56:13;;;;;;;27.30;13.83;;;9.00;51.80;;;;;;5001475;28;46519;-80
2023/10/07 00:58:41;;;;;;;23.70;12.70;;;9.00;51.80;;;;;;5000648;28;46540;-80
2023/10/07 01:01:10;;;;;;;21.70;11.80;;;9.00;51.80;;;;;;5001477;28;46754;-80
2023/10/07 01:03:48;;;;;;;22.50;12.43;;;8.90;51.70;;;;;;5000207;28;46430;-79
2023/10/07 01:06:25;;;;;;;21.10;13.50;;;8.90;51.70;;;;;;5000262;28;46462;-80
2023/10/07 01:09:10;;;;;;;24.43;13.10;;;8.90;51.60;;;;;;4998678;28;46472;-79
2023/10/07 01:11:46;;;;;;;25.33;14.53;;;8.90;51.60;;;;;;4998628;28;46466;-79
2023/10/07 01:14:12;;;;;;;29.90;15.57;;;8.90;51.70;;;;;;5001897;28;47092;-79
2023/10/07 01:16:45;;;;;;;27.20;15.93;;;8.90;51.70;;;;;;4998670;28;46448;-79
2023/10/07 01:21:55;;;;;;;32.73;17.37;;;9.20;51.90;;;;;;4998251;28;46384;-80
2023/10/07 01:27:41;;;;;;;37.40;18.90;;;9.00;51.80;;;;;;5000404;28;46440;-79
2023/10/07 01:32:48;;;;;;;37.77;20.03;;;9.00;53.10;;;;;;4999897;28;46423;-80
2023/10/07 01:35:16;;;;;;;37.10;19.30;;;9.00;53.40;;;;;;4997896;28;48182;-80
2023/10/07 01:37:52;;;;;;;31.90;17.23;;;9.00;53.80;;;;;;4997248;28;46456;-79
2023/10/07 01:40:18;;;;;;;37.93;18.20;;;9.10;54.10;;;;;;5000634;28;46745;-79
2023/10/07 01:42:44;;;;;;;40.47;19.10;;;9.10;54.30;;;;;;4997191;28;46870;-78
2023/10/07 01:45:22;;;;;;;37.10;17.73;;;9.00;54.40;;;;;;4998527;28;46970;-79
2023/10/07 01:47:55;;;;;;;31.13;16.00;;;9.00;54.50;;;;;;4995420;28;47056;-79
2023/10/07 01:50:24;;;;;;;33.63;16.77;;;9.00;54.50;;;;;;4999251;28;46443;-79
2023/10/07 01:52:55;;;;;;;38.70;18.33;;;9.00;54.70;;;;;;4998837;28;46455;-79
2023/10/07 01:55:21;;;;;;;38.43;18.97;;;9.00;54.80;;;;;;4998757;28;47007;-81
2023/10/07 01:57:50;;;;;;;35.20;18.30;;;9.00;54.90;;;;;;4998995;28;46671;-80
2023/10/07 02:00:38;;;;;;;37.30;18.37;;;8.90;54.90;;;;;;5006315;28;46485;-79
2023/10/07 02:03:03;;;;;;;35.27;18.27;;;8.90;55.00;;;;;;5000088;28;46324;-79
2023/10/07 02:05:40;;;;;;;36.07;18.20;;;8.90;55.00;;;;;;4998490;28;46309;-79
2023/10/07 02:08:14;;;;;;;32.93;18.27;;;8.90;55.10;;;;;;4999123;28;46573;-78
2023/10/07 02:10:41;;;;;;;37.67;20.83;;;8.90;55.10;;;;;;4999483;28;46537;-79
2023/10/07 02:13:09;;;;;;;37.90;18.20;;;8.90;55.10;;;;;;4998106;28;46647;-79
2023/10/07 02:15:37;;;;;;;44.43;20.60;;;8.90;55.20;;;;;;5001550;28;47168;-80
2023/10/07 02:18:04;;;;;;;40.27;20.03;;;8.90;55.30;;;;;;4998689;28;46447;-79
2023/10/07 02:20:38;;;;;;;44.43;21.47;;;8.90;55.40;;;;;;4999158;28;46427;-79
2023/10/07 02:23:12;;;;;;;44.03;22.23;;;8.90;55.50;;;;;;4999525;28;46484;-79
2023/10/07 02:25:40;;;;;;;42.87;22.47;;;8.90;55.60;;;;;;4996370;28;47106;-79
2023/10/07 02:28:06;;;;;;;40.00;20.60;;;8.90;56.00;;;;;;4990737;28;46831;-80
2023/10/07 02:30:39;;;;;;;38.40;20.07;;;8.90;56.30;;;;;;5000816;28;46737;-79
2023/10/07 02:33:08;;;;;;;48.73;18.87;;;8.90;56.40;;;;;;4998590;28;47274;-80
2023/10/07 02:35:36;;;;;;;43.33;19.83;;;8.90;56.50;;;;;;4999613;28;46747;-80
2023/10/07 02:38:03;;;;;;;38.00;18.60;;;8.80;56.50;;;;;;4999790;28;46962;-80
2023/10/07 02:40:49;;;;;;;40.90;19.80;;;8.80;56.60;;;;;;4998953;28;46408;-79
2023/10/07 02:43:15;;;;;;;43.03;17.73;;;8.80;56.60;;;;;;4999123;28;46396;-80
2023/10/07 02:45:42;;;;;;;46.90;21.20;;;8.70;56.60;;;;;;4998734;28;46483;-77
2023/10/07 02:48:11;;;;;;;40.20;20.30;;;8.70;56.60;;;;;;4999230;28;46851;-80
2023/10/07 02:50:42;;;;;;;37.93;19.73;;;8.70;56.70;;;;;;5000124;28;46538;-79
2023/10/07 02:53:14;;;;;;;47.13;22.03;;;8.70;56.80;;;;;;4999407;28;46598;-81
2023/10/07 02:55:58;;;;;;;40.40;21.30;;;8.60;56.80;;;;;;5000255;28;48151;-82
2023/10/07 02:58:51;;;;;;;43.43;21.27;;;8.60;56.90;;;;;;4999363;28;46675;-82
2023/10/07 03:01:18;;;;;;;42.10;19.33;;;8.60;57.10;;;;;;5004152;28;46496;-82
2023/10/07 03:03:48;;;;;;;39.07;18.80;;;8.60;57.10;;;;;;5002002;28;45891;-77
2023/10/07 03:06:17;;;;;;;41.40;19.53;;;8.50;57.10;;;;;;4999125;28;46612;-81
2023/10/07 03:11:20;;;;;;;38.67;19.07;;;8.50;57.00;;;;;;4998411;28;46581;-80
2023/10/07 03:13:46;;;;;;;39.77;18.80;;;8.50;57.20;;;;;;4997614;28;46598;-79
2023/10/07 03:18:56;;;;;;;38.97;19.10;;;8.40;57.10;;;;;;4997565;28;46848;-80
2023/10/07 03:21:22;;;;;;;37.80;19.27;;;8.40;57.20;;;;;;4999891;28;46598;-80
2023/10/07 03:23:48;;;;;;;38.90;19.40;;;8.40;57.20;;;;;;4996817;28;46563;-77
2023/10/07 03:26:18;;;;;;;48.37;20.27;;;8.40;57.30;;;;;;4999558;28;47351;-78
2023/10/07 03:28:54;;;;;;;41.20;20.00;;;8.40;57.30;;;;;;4998162;28;46923;-79
2023/10/07 03:31:21;;;;;;;45.40;21.23;;;8.30;57.40;;;;;;4998897;28;46508;-79
2023/10/07 03:33:58;;;;;;;37.47;19.07;;;8.30;57.40;;;;;;4998043;28;46507;-77
2023/10/07 03:39:17;;;;;;;43.70;19.27;;;8.30;57.70;;;;;;4993978;28;46514;-81
2023/10/07 03:41:48;;;;;;;43.37;20.03;;;8.20;57.70;;;;;;4997920;28;46840;-80
2023/10/07 03:44:20;;;;;;;38.23;18.30;;;8.10;57.80;;;;;;4999247;28;46479;-80
2023/10/07 03:46:48;;;;;;;36.30;17.87;;;8.00;57.90;;;;;;4994718;28;48094;-78
2023/10/07 03:49:15;;;;;;;34.30;16.10;;;7.90;57.90;;;;;;4996753;28;46403;-79
2023/10/07 03:51:45;;;;;;;30.83;15.17;;;7.90;58.10;;;;;;4998253;28;46871;-79
2023/10/07 03:54:15;;;;;;;29.90;15.40;;;7.80;58.10;;;;;;4997219;28;46767;-79
2023/10/07 03:56:42;;;;;;;36.27;17.57;;;7.80;58.30;;;;;;4999733;28;47193;-80
2023/10/07 03:59:08;;;;;;;29.00;16.67;;;7.70;58.10;;;;;;4998760;28;46386;-79
2023/10/07 04:01:42;;;;;;;34.07;16.90;;;7.70;58.10;;;;;;5000268;28;46660;-78
2023/10/07 04:04:11;;;;;;;34.77;16.70;;;7.60;58.10;;;;;;5002149;28;46471;-80
2023/10/07 04:06:38;;;;;;;28.17;14.43;;;7.60;58.10;;;;;;5006698;28;47193;-79
2023/10/07 04:09:07;;;;;;;27.53;14.60;;;7.60;58.10;;;;;;5006260;28;46536;-80
2023/10/07 04:11:34;;;;;;;24.23;13.10;;;7.50;58.00;;;;;;5006838;28;46493;-80
2023/10/07 04:14:06;;;;;;;27.60;13.70;;;7.40;58.00;;;;;;5005664;28;46449;-80
2023/10/07 04:16:33;;;;;;;29.90;14.60;;;7.30;58.00;;;;;;5004758;28;47170;-80
2023/10/07 04:19:30;;;;;;;21.93;12.80;;;7.20;58.10;;;;;;5007275;28;46733;-79
2023/10/07 04:21:55;;;;;;;25.07;14.20;;;7.20;58.20;;;;;;5002092;28;46786;-80
2023/10/07 04:24:23;;;;;;;24.53;13.40;;;7.10;58.00;;;;;;5001012;28;46659;-80
2023/10/07 04:26:54;;;;;;;24.70;12.60;;;7.10;58.00;;;;;;5004418;28;46828;-79
2023/10/07 04:29:21;;;;;;;23.10;13.27;;;7.00;58.00;;;;;;5001441;28;46741;-79
2023/10/07 04:31:54;;;;;;;23.90;13.50;;;7.10;58.10;;;;;;5002165;28;46458;-82
2023/10/07 04:34:24;;;;;;;26.47;12.93;;;7.00;58.00;;;;;;5001870;28;46793;-81
2023/10/07 04:42:20;;;;;;;26.20;14.10;;;7.10;57.60;;;;;;5001360;28;46445;-81
2023/10/07 04:47:34;;;;;;;27.40;16.13;;;7.20;57.30;;;;;;5002916;28;46596;-81
2023/10/07 04:52:30;;;;;;;30.33;16.67;;;7.30;57.20;;;;;;5001969;28;46500;-80
2023/10/07 04:54:59;;;;;;;31.27;17.43;;;7.30;57.20;;;;;;5000590;28;46568;-79
2023/10/07 05:03:14;;;;;;;25.80;14.23;;;7.30;57.20;;;;;;4996351;28;46601;-79
2023/10/07 05:05:44;;;;;;;22.33;12.80;;;7.30;58.60;;;;;;4999379;28;46924;-79
2023/10/07 05:08:11;;;;;;;19.57;12.20;;;7.20;57.50;;;;;;4999481;28;47820;-78
2023/10/07 05:10:41;;;;;;;24.17;12.93;;;7.00;57.60;;;;;;5000514;28;46246;-81
2023/10/07 05:13:08;;;;;;;21.63;12.87;;;7.00;57.70;;;;;;5000270;28;46379;-81
2023/10/07 05:15:38;;;;;;;22.40;11.73;;;6.90;57.70;;;;;;5000923;28;46611;-80
2023/10/07 05:18:04;;;;;;;21.07;11.70;;;6.90;57.80;;;;;;5002913;28;46437;-80
2023/10/07 05:20:32;;;;;;;22.83;12.00;;;6.90;57.60;;;;;;5000625;28;46942;-79
2023/10/07 05:23:02;;;;;;;21.00;11.17;;;6.80;57.50;;;;;;5006209;28;46391;-80
2023/10/07 05:25:30;;;;;;;17.23;10.23;;;6.60;57.70;;;;;;5001032;28;46558;-80
2023/10/07 05:27:56;;;;;;;21.13;10.33;;;6.50;57.70;;;;;;4998716;28;46448;-81
2023/10/07 05:30:22;;;;;;;18.73;10.10;;;6.40;57.70;;;;;;5002307;28;46546;-80
2023/10/07 05:32:47;;;;;;;21.83;11.40;;;6.40;57.90;;;;;;5001025;28;47133;-80
2023/10/07 05:35:15;;;;;;;25.80;11.57;;;6.50;57.70;;;;;;4999037;28;46861;-80
2023/10/07 05:37:42;;;;;;;25.73;11.90;;;6.60;57.50;;;;;;5001222;28;46722;-81
2023/10/07 05:40:13;;;;;;;23.70;14.20;;;6.70;57.10;;;;;;5001091;28;46583;-80
2023/10/07 05:42:39;;;;;;;27.33;15.50;;;6.90;56.70;;;;;;5001930;28;46984;-81
2023/10/07 05:45:05;;;;;;;38.10;20.07;;;7.00;56.50;;;;;;5002121;28;46928;-79
2023/10/07 05:47:32;;;;;;;41.17;19.90;;;7.20;56.10;;;;;;4997587;28;47232;-80
2023/10/07 05:50:00;;;;;;;29.00;15.10;;;7.30;56.00;;;;;;4999469;28;46440;-79
2023/10/07 05:52:26;;;;;;;26.73;15.13;;;7.50;56.00;;;;;;5003766;28;46466;-80
2023/10/07 05:54:56;;;;;;;24.13;13.57;;;7.60;55.90;;;;;;5004633;28;46577;-81
2023/10/07 05:57:22;;;;;;;25.97;13.47;;;7.60;55.90;;;;;;5002214;28;46506;-81
2023/10/07 05:59:49;;;;;;;26.70;12.60;;;7.70;56.00;;;;;;5001252;28;46670;-81
2023/10/07 06:02:16;;;;;;;26.87;13.00;;;7.70;55.90;;;;;;5003269;28;46713;-80
2023/10/07 06:04:43;;;;;;;27.10;13.10;;;7.80;56.10;;;;;;5002742;28;47473;-81
2023/10/07 06:07:12;;;;;;;21.27;13.03;;;7.90;56.00;;;;;;5002703;28;46460;-80
2023/10/07 06:09:41;;;;;;;19.63;12.57;;;8.00;55.80;;;;;;5004148;28;46948;-81
2023/10/07 06:12:09;;;;;;;24.20;13.63;;;8.20;55.70;;;;;;5001773;28;46435;-79
2023/10/07 06:14:35;;;;;;;21.77;13.47;;;8.30;55.50;;;;;;4998529;28;46689;-78
2023/10/07 06:17:00;;;;;;;22.93;12.73;;;8.50;55.30;;;;;;5004928;28;46738;-80
2023/10/07 06:19:26;;;;;;;28.00;13.10;;;8.70;55.20;;;;;;5004375;28;46455;-80
2023/10/07 06:21:52;;;;;;;28.83;13.17;;;8.80;55.10;;;;;;5006057;28;46285;-80
2023/10/07 06:24:21;;;;;;;21.70;12.60;;;9.00;55.00;;;;;;5003877;28;46550;-80
2023/10/07 06:26:53;;;;;;;25.43;12.70;;;9.10;54.90;;;;;;5001282;28;48498;-79
2023/10/07 06:29:19;;;;;;;23.20;11.33;;;9.30;54.80;;;;;;4994810;28;46503;-81
2023/10/07 06:31:55;;;;;;;23.40;12.27;;;9.50;54.70;;;;;;5006579;28;46678;-81
2023/10/07 06:34:25;;;;;;;16.43;9.00;;;9.70;54.60;;;;;;5004634;28;46463;-80
2023/10/07 06:36:52;;;;;;;20.57;10.03;;;9.80;54.50;;;;;;5005684;28;47063;-79
2023/10/07 06:39:27;;;;;;;19.90;9.60;;;10.00;53.70;;;;;;4999592;28;46856;-80
2023/10/07 06:41:55;;;;;;;16.97;10.27;;;10.20;53.90;;;;;;4994072;28;46462;-78
2023/10/07 06:44:23;;;;;;;14.83;9.00;;;10.30;53.90;;;;;;4993305;28;46576;-81
2023/10/07 06:46:55;;;;;;;16.30;9.20;;;10.50;54.10;;;;;;4998131;28;46620;-78
2023/10/07 06:49:22;;;;;;;19.63;8.87;;;10.80;54.10;;;;;;4994741;28;47424;-79
2023/10/07 06:51:53;;;;;;;16.20;9.30;;;10.90;53.90;;;;;;4993042;28;46552;-77
2023/10/07 06:54:20;;;;;;;15.97;8.47;;;11.20;53.80;;;;;;4993690;28;46842;-77
2023/10/07 06:56:45;;;;;;;13.23;7.47;;;11.30;53.70;;;;;;4998227;28;46880;-79
2023/10/07 06:59:13;;;;;;;12.77;7.43;;;11.40;53.80;;;;;;4997515;28;46578;-79
2023/10/07 07:04:11;;;;;;;12.97;7.03;;;11.80;53.30;;;;;;4999286;28;46804;-78
2023/10/07 07:06:57;;;;;;;12.70;7.40;;;12.00;53.50;;;;;;4996182;28;46756;-79
2023/10/07 07:12:09;;;;;;;10.83;6.00;;;12.40;53.80;;;;;;4999657;28;46490;-79
2023/10/07 07:14:42;;;;;;;11.93;5.83;;;12.60;53.10;;;;;;4997451;28;46655;-79
2023/10/07 07:17:30;;;;;;;12.03;5.60;;;12.80;52.60;;;;;;5000315;28;47187;-78
2023/10/07 07:22:39;;;;;;;14.40;6.10;;;13.30;51.60;;;;;;4997304;28;46868;-78
2023/10/07 07:25:10;;;;;;;11.80;6.40;;;13.40;51.10;;;;;;4998985;28;46503;-78
2023/10/07 07:27:36;;;;;;;9.83;5.30;;;13.50;50.80;;;;;;4998659;28;47457;-80
2023/10/07 07:30:03;;;;;;;11.10;5.20;;;13.70;50.50;;;;;;4998979;28;46751;-80
2023/10/07 07:32:32;;;;;;;13.00;6.40;;;13.80;50.00;;;;;;4999054;28;46452;-79
2023/10/07 07:35:10;;;;;;;13.40;4.90;;;14.00;49.40;;;;;;4997233;28;46631;-79
2023/10/07 07:37:36;;;;;;;16.30;6.33;;;14.10;49.00;;;;;;5000996;28;46868;-80
2023/10/07 07:40:49;;;;;;;17.63;6.50;;;14.30;48.70;;;;;;5002874;28;46443;-79
2023/10/07 07:42:55;;;;;;;22.53;8.97;;;14.40;48.20;;;;;;4990573;28;46615;-79
2023/10/07 07:45:27;;;;;;;11.37;5.70;;;14.60;47.60;;;;;;5003617;28;45993;-79
2023/10/07 07:47:56;;;;;;;11.83;5.47;;;14.60;46.30;;;;;;4997538;28;47330;-78
2023/10/07 07:50:22;;;;;;;11.43;4.80;;;14.70;46.40;;;;;;5002574;28;46453;-79
2023/10/07 07:52:49;;;;;;;8.97;4.67;;;14.80;45.90;;;;;;5002988;28;46477;-78
2023/10/07 07:55:18;;;;;;;9.50;5.17;;;14.80;46.00;;;;;;5002453;28;46606;-78
2023/10/07 07:57:44;;;;;;;21.60;9.53;;;14.90;45.40;;;;;;5000030;28;49171;-86
2023/10/07 08:00:22;;;;;;;10.10;5.33;;;15.10;44.80;;;;;;5002046;28;46523;-79
2023/10/07 08:02:55;;;;;;;10.20;4.83;;;15.20;44.10;;;;;;5002028;28;46371;-80
2023/10/07 08:05:21;;;;;;;16.13;5.37;;;15.30;43.30;;;;;;5002809;28;46222;-80
2023/10/07 08:07:51;;;;;;;10.37;4.77;;;15.50;43.50;;;;;;5002589;28;48222;-80
2023/10/07 08:10:20;;;;;;;13.33;5.07;;;15.40;44.40;;;;;;5004323;28;46427;-79
2023/10/07 08:12:47;;;;;;;9.80;4.90;;;15.40;42.20;;;;;;5002747;28;46352;-79
2023/10/07 08:17:39;;;;;;;10.73;5.27;;;15.40;41.40;;;;;;5002056;28;47038;-80
2023/10/07 08:20:13;;;;;;;14.70;5.27;;;15.50;40.80;;;;;;5002257;28;46523;-78
2023/10/07 08:22:51;;;;;;;11.23;5.57;;;15.50;39.90;;;;;;5001476;28;46511;-78
2023/10/07 08:28:18;;;;;;;14.13;5.90;;;15.70;38.70;;;;;;5000819;28;46791;-80
2023/10/07 08:30:47;;;;;;;11.47;4.70;;;15.90;38.70;;;;;;4990941;28;46467;-79
2023/10/07 08:33:22;;;;;;;10.30;5.07;;;16.10;38.30;;;;;;5000118;28;46996;-78
2023/10/07 08:35:49;;;;;;;9.43;5.00;;;16.20;37.70;;;;;;5002508;28;46373;-79
2023/10/07 08:38:22;;;;;;;13.60;5.20;;;16.40;37.20;;;;;;5003293;28;46540;-79
2023/10/07 08:40:59;;;;;;;13.60;5.63;;;16.70;36.80;;;;;;4998285;28;46564;-79
2023/10/07 08:43:32;;;;;;;11.23;4.90;;;16.70;36.00;;;;;;4999907;28;45910;-79
2023/10/07 08:46:01;;;;;;;10.93;5.10;;;16.90;35.60;;;;;;5003293;28;47296;-79
2023/10/07 08:48:30;;;;;;;11.03;5.20;;;17.10;35.00;;;;;;4998743;28;47206;-79
2023/10/07 08:50:56;;;;;;;16.23;5.30;;;17.20;34.30;;;;;;4998340;28;46703;-79
2023/10/07 08:53:25;;;;;;;10.70;5.37;;;17.40;33.90;;;;;;4998785;28;46926;-78
2023/10/07 08:55:57;;;;;;;13.33;5.40;;;17.40;31.70;;;;;;4989412;28;47321;-79
2023/10/07 08:58:26;;;;;;;10.33;4.97;;;17.50;31.70;;;;;;4996794;28;46747;-81
2023/10/07 09:00:52;;;;;;;22.77;5.93;;;17.60;31.20;;;;;;4998459;28;46574;-81
2023/10/07 09:03:19;;;;;;;13.87;5.77;;;17.70;31.70;;;;;;5000836;28;46605;-79
2023/10/07 09:05:48;;;;;;;16.53;5.37;;;17.70;29.80;;;;;;4997502;28;46416;-79
2023/10/07 09:08:15;;;;;;;12.23;5.77;;;17.80;29.60;;;;;;5001921;28;48464;-79
2023/10/07 09:10:45;;;;;;;16.80;6.23;;;17.90;29.60;;;;;;5000500;28;46383;-80
2023/10/07 09:13:19;;;;;;;14.67;6.00;;;17.90;28.70;;;;;;5000149;28;46504;-79
2023/10/07 09:15:46;;;;;;;12.37;5.20;;;18.10;28.90;;;;;;4997441;28;46495;-81
2023/10/07 09:18:17;;;;;;;15.50;6.20;;;18.40;28.00;;;;;;4998512;28;47271;-80
2023/10/07 09:20:45;;;;;;;12.97;5.90;;;18.40;27.30;;;;;;4998768;28;46905;-81
2023/10/07 09:23:19;;;;;;;21.97;5.83;;;18.40;27.20;;;;;;5000059;28;46515;-81
2023/10/07 09:25:50;;;;;;;15.43;5.03;;;18.50;26.70;;;;;;4996779;28;46369;-80
2023/10/07 09:28:19;;;;;;;17.10;6.03;;;18.70;26.20;;;;;;5000953;28;47103;-80
2023/10/07 09:30:46;;;;;;;11.73;5.53;;;18.90;26.10;;;;;;5005960;28;46774;-81
2023/10/07 09:33:14;;;;;;;10.57;5.33;;;19.10;25.70;;;;;;5000510;28;46019;-81
2023/10/07 09:35:46;;;;;;;18.47;5.60;;;19.20;25.30;;;;;;4995367;28;46933;-81
2023/10/07 09:38:27;;;;;;;10.60;4.77;;;19.40;25.00;;;;;;5006853;28;46743;-80
2023/10/07 09:43:33;;;;;;;14.97;4.87;;;19.60;24.10;;;;;;5000269;28;46791;-81
2023/10/07 09:45:58;;;;;;;10.03;4.00;;;19.70;23.10;;;;;;4997376;28;47095;-82
2023/10/07 09:48:33;;;;;;;11.33;5.20;;;19.90;22.50;;;;;;5003863;28;48000;-80
2023/10/07 09:50:59;;;;;;;12.00;4.50;;;20.00;22.40;;;;;;5017848;28;46437;-82
2023/10/07 09:53:41;;;;;;;9.13;4.33;;;20.30;22.20;;;;;;5000091;28;45865;-80
2023/10/07 09:56:21;;;;;;;8.40;4.60;;;20.50;21.40;;;;;;4997927;28;46485;-79
2023/10/07 09:59:13;;;;;;;9.83;4.67;;;20.60;21.10;;;;;;4993108;28;48257;-79
2023/10/07 10:01:54;;;;;;;8.80;4.27;;;20.70;20.20;;;;;;4991498;28;46962;-79
2023/10/07 10:04:43;;;;;;;12.33;4.83;;;21.10;19.50;;;;;;5001118;28;46506;-80
2023/10/07 10:07:10;;;;;;;7.93;4.10;;;21.00;15.90;;;;;;4999993;28;46558;-82
2023/10/07 10:12:29;;;;;;;12.13;4.83;;;20.90;13.80;;;;;;4999147;28;46576;-81
2023/10/07 10:17:56;;;;;;;13.43;4.30;;;21.30;12.30;;;;;;4916774;28;46835;-80
2023/10/07 10:20:27;;;;;;;13.73;3.93;;;21.30;11.60;;;;;;4981860;28;46955;-83
2023/10/07 10:23:00;;;;;;;8.50;3.77;;;21.20;10.80;;;;;;4988096;28;46446;-80
2023/10/07 10:25:36;;;;;;;8.17;4.00;;;21.20;10.50;;;;;;5001512;28;46440;-78
2023/10/07 10:28:03;;;;;;;8.10;3.93;;;21.20;9.00;;;;;;4998765;28;46447;-81
2023/10/07 10:30:29;;;;;;;9.57;4.40;;;21.40;7.60;;;;;;4997590;28;46831;-80
2023/10/07 10:33:00;;;;;;;10.33;3.77;;;21.40;7.20;;;;;;4998624;28;46421;-79
2023/10/07 10:35:27;;;;;;;8.63;3.50;;;21.40;6.50;;;;;;4999436;28;46447;-80
2023/10/07 10:37:59;;;;;;;10.53;3.90;;;21.70;6.30;;;;;;4996563;28;46473;-79
2023/10/07 10:40:31;;;;;;;7.30;3.43;;;21.90;6.60;;;;;;4999037;28;47755;-80
2023/10/07 10:42:57;;;;;;;13.30;4.20;;;22.10;5.90;;;;;;5000076;28;46532;-81
2023/10/07 10:45:30;;;;;;;7.97;4.40;;;22.20;6.20;;;;;;4998597;28;46490;-80
2023/10/07 10:48:01;;;;;;;14.47;4.53;;;22.40;6.50;;;;;;4999773;28;46837;-80
2023/10/07 10:50:32;;;;;;;9.80;4.17;;;22.10;6.30;;;;;;4999022;28;46504;-82
2023/10/07 10:52:59;;;;;;;8.93;4.50;;;22.40;7.20;;;;;;4999776;28;46723;-79
2023/10/07 10:55:25;;;;;;;8.47;3.80;;;22.70;6.80;;;;;;4999186;28;46913;-81
2023/10/07 10:57:52;;;;;;;11.07;4.80;;;22.50;6.50;;;;;;4997006;28;46693;-81
2023/10/07 11:00:22;;;;;;;7.90;3.63;;;22.30;5.80;;;;;;4998640;28;46808;-79
2023/10/07 11:02:52;;;;;;;9.43;4.07;;;22.30;5.40;;;;;;4999336;28;46527;-80
2023/10/07 11:05:18;;;;;;;9.57;3.70;;;22.10;4.60;;;;;;5000467;28;46737;-80
2023/10/07 11:07:47;;;;;;;9.53;3.50;;;22.10;4.70;;;;;;4997196;28;46576;-79
2023/10/07 11:10:20;;;;;;;8.90;3.67;;;22.20;4.90;;;;;;4994924;28;46496;-79
2023/10/07 11:12:51;;;;;;;8.23;3.97;;;22.20;4.00;;;;;;4996691;28;46908;-80
2023/10/07 11:15:24;;;;;;;6.87;3.60;;;22.40;4.30;;;;;;4989539;28;47134;-79
2023/10/07 11:18:12;;;;;;;9.10;4.27;;;22.60;4.20;;;;;;4998068;28;45911;-82
2023/10/07 11:20:42;;;;;;;9.87;4.30;;;22.80;4.80;;;;;;4998557;28;46320;-80
2023/10/07 11:23:08;;;;;;;13.20;4.03;;;22.80;3.90;;;;;;4987859;28;46766;-79
2023/10/07 11:25:35;;;;;;;7.57;3.77;;;22.80;4.20;;;;;;4997036;28;46555;-80
2023/10/07 11:28:09;;;;;;;11.00;4.10;;;22.70;4.30;;;;;;4999131;28;46745;-80
2023/10/07 11:30:55;;;;;;;5.43;2.67;;;22.70;4.50;;;;;;4997855;28;49143;-78
2023/10/07 11:33:20;;;;;;;7.47;3.50;;;22.50;1.70;;;;;;4997195;28;46529;-82
2023/10/07 11:35:59;;;;;;;6.07;2.87;;;22.30;1.00;;;;;;4999504;28;46579;-80
2023/10/07 11:38:26;;;;;;;9.07;3.23;;;22.20;1.00;;;;;;4994567;28;46611;-80
2023/10/07 11:40:52;;;;;;;8.53;3.43;;;22.20;1.00;;;;;;4997443;28;47082;-81
2023/10/07 11:43:17;;;;;;;9.23;2.90;;;22.20;1.00;;;;;;4998504;28;46538;-81
2023/10/07 11:45:44;;;;;;;9.93;3.40;;;22.20;1.00;;;;;;4999402;28;46471;-82
2023/10/07 11:48:11;;;;;;;7.00;3.27;;;22.30;1.00;;;;;;4997692;28;46464;-81
2023/10/07 11:50:37;;;;;;;8.20;3.17;;;22.20;1.00;;;;;;4999773;28;47634;-82
2023/10/07 11:53:07;;;;;;;7.33;3.27;;;22.20;1.00;;;;;;5000092;28;46515;-79
2023/10/07 11:55:33;;;;;;;6.83;3.17;;;22.20;1.00;;;;;;4997615;28;46451;-80
2023/10/07 11:58:02;;;;;;;6.03;3.20;;;22.20;1.00;;;;;;4996474;28;46208;-81
2023/10/07 12:00:30;;;;;;;6.43;3.50;;;22.40;1.00;;;;;;4998275;28;46445;-80
2023/10/07 12:02:57;;;;;;;10.03;3.80;;;22.50;1.00;;;;;;4998788;28;46391;-80
2023/10/07 12:05:32;;;;;;;6.83;3.33;;;22.60;1.00;;;;;;4989790;28;46460;-80
2023/10/07 12:08:01;;;;;;;9.40;3.50;;;22.60;1.00;;;;;;4998343;28;46595;-82
2023/10/07 12:10:28;;;;;;;8.33;3.33;;;22.60;1.00;;;;;;4998821;28;47000;-81
2023/10/07 12:12:54;;;;;;;7.50;3.90;;;22.60;1.00;;;;;;4997158;28;46471;-81
2023/10/07 12:15:21;;;;;;;7.57;3.23;;;22.50;1.00;;;;;;4998950;28;46719;-80
2023/10/07 12:17:50;;;;;;;8.30;4.30;;;22.50;1.00;;;;;;5000598;28;45873;-79
2023/10/07 12:20:15;;;;;;;8.87;3.80;;;22.30;1.00;;;;;;4997801;28;46506;-81
2023/10/07 12:22:42;;;;;;;8.63;3.70;;;22.30;1.00;;;;;;4999423;28;46502;-80
2023/10/07 12:25:16;;;;;;;9.20;4.17;;;22.00;1.00;;;;;;5000389;28;46538;-81
2023/10/07 12:27:43;;;;;;;9.60;3.43;;;21.90;1.00;;;;;;4988083;28;46393;-80
2023/10/07 12:30:11;;;;;;;9.10;3.47;;;21.90;1.00;;;;;;5001345;28;46419;-81
2023/10/07 12:32:37;;;;;;;7.30;3.20;;;22.00;1.00;;;;;;5000372;28;46120;-81
2023/10/07 12:35:04;;;;;;;9.70;3.50;;;22.10;1.00;;;;;;4991930;28;46810;-80
2023/10/07 12:37:31;;;;;;;12.30;3.40;;;22.10;1.00;;;;;;5002105;28;46489;-80
2023/10/07 12:39:56;;;;;;;10.40;3.40;;;22.00;1.00;;;;;;5000793;28;46414;-79
2023/10/07 12:42:25;;;;;;;9.83;3.70;;;22.00;1.00;;;;;;5002041;28;46726;-81
2023/10/07 12:44:51;;;;;;;6.73;3.23;;;22.10;1.00;;;;;;4990043;28;46660;-81
2023/10/07 12:47:17;;;;;;;10.47;2.90;;;22.20;1.00;;;;;;5000330;28;46922;-77
2023/10/07 12:49:45;;;;;;;6.50;2.60;;;22.10;1.00;;;;;;5001325;28;47967;-78
2023/10/07 12:52:14;;;;;;;9.53;3.17;;;22.10;1.00;;;;;;5000611;28;45788;-81
2023/10/07 12:54:44;;;;;;;7.03;3.23;;;21.90;1.00;;;;;;4997002;28;46701;-78
2023/10/07 12:57:15;;;;;;;7.37;3.43;;;21.90;1.00;;;;;;5000460;28;46518;-78
2023/10/07 12:59:47;;;;;;;8.43;3.50;;;22.00;1.00;;;;;;5002262;28;46392;-78
2023/10/07 13:02:17;;;;;;;6.80;3.00;;;21.80;1.00;;;;;;4999788;28;46763;-82
2023/10/07 13:04:49;;;;;;;7.87;3.57;;;21.80;1.00;;;;;;4996810;28;46605;-79
2023/10/07 13:07:17;;;;;;;7.10;3.00;;;21.70;1.00;;;;;;4998065;28;46595;-84
2023/10/07 13:09:46;;;;;;;7.20;2.53;;;21.60;1.00;;;;;;4995416;28;46997;-79
2023/10/07 13:12:13;;;;;;;9.00;2.90;;;21.70;1.00;;;;;;4998851;28;46431;-80
2023/10/07 13:14:42;;;;;;;6.97;3.50;;;21.80;1.00;;;;;;4998750;28;46757;-79
2023/10/07 13:17:13;;;;;;;8.50;3.67;;;22.00;1.00;;;;;;5010512;28;46652;-80
2023/10/07 13:19:40;;;;;;;8.70;3.10;;;22.00;1.00;;;;;;5005460;28;46530;-80
2023/10/07 13:22:06;;;;;;;6.73;3.00;;;22.20;1.00;;;;;;5002719;28;46308;-82
2023/10/07 13:24:32;;;;;;;8.07;3.10;;;22.00;1.00;;;;;;5003532;28;46495;-80
2023/10/07 13:26:58;;;;;;;7.03;3.37;;;22.10;1.00;;;;;;5007360;28;46503;-81
2023/10/07 13:29:24;;;;;;;8.00;3.10;;;21.90;1.00;;;;;;5001717;28;48260;-80
2023/10/07 13:31:52;;;;;;;8.07;3.07;;;22.00;1.00;;;;;;5001934;28;46508;-77
2023/10/07 13:34:18;;;;;;;7.97;3.30;;;21.80;1.00;;;;;;5002658;28;46172;-78
2023/10/07 13:36:44;;;;;;;7.30;2.80;;;22.00;1.00;;;;;;5003235;28;46212;-80
2023/10/07 13:39:15;;;;;;;10.83;3.03;;;21.90;1.00;;;;;;5001256;28;47983;-81
2023/10/07 13:41:45;;;;;;;11.63;3.03;;;22.10;1.00;;;;;;4999194;28;46316;-78
2023/10/07 13:44:18;;;;;;;14.90;3.90;;;21.90;1.00;;;;;;4999437;28;46699;-80
2023/10/07 13:46:44;;;;;;;8.20;2.83;;;21.90;1.00;;;;;;4997410;28;46431;-79
2023/10/07 13:49:10;;;;;;;7.10;3.20;;;21.80;1.00;;;;;;4997897;28;46713;-81
2023/10/07 13:51:41;;;;;;;7.73;3.30;;;21.70;1.00;;;;;;4999717;28;46464;-79